createdAt,value
2018-01-24T00:02:01.661Z,5.72
2018-01-24T00:04:29.290Z,3.42
2018-01-24T00:06:56.788Z,4.40
2018-01-24T00:09:24.406Z,5.10
2018-01-24T00:11:51.906Z,3.97
2018-01-24T00:14:19.418Z,4.00
2018-01-24T00:16:46.975Z,4.05
2018-01-24T00:19:14.579Z,4.68
2018-01-24T00:21:42.127Z,6.15
2018-01-24T00:24:09.617Z,4.97
2018-01-24T00:26:37.606Z,8.27
2018-01-24T00:29:05.118Z,5.82
2018-01-24T00:31:32.615Z,5.68
2018-01-24T00:34:00.170Z,4.95
2018-01-24T00:36:27.835Z,5.50
2018-01-24T00:38:55.485Z,5.93
2018-01-24T00:41:23.150Z,3.67
2018-01-24T00:43:50.810Z,2.75
2018-01-24T00:46:18.466Z,5.00
2018-01-24T00:48:46.130Z,3.10
2018-01-24T00:51:13.642Z,2.60
2018-01-24T00:53:41.135Z,2.35
2018-01-24T00:56:08.658Z,5.50
2018-01-24T00:58:36.354Z,3.80
2018-01-24T01:01:03.846Z,5.35
2018-01-24T01:03:31.465Z,3.83
2018-01-24T01:05:58.962Z,2.42
2018-01-24T01:08:26.574Z,2.00
2018-01-24T01:10:54.208Z,2.15
2018-01-24T01:13:21.895Z,2.12
2018-01-24T01:15:49.394Z,2.05
2018-01-24T01:18:16.945Z,1.67
2018-01-24T01:20:44.458Z,2.62
2018-01-24T01:23:11.974Z,1.75
2018-01-24T01:25:39.574Z,3.83
2018-01-24T01:28:07.244Z,1.62
2018-01-24T01:30:34.738Z,2.25
2018-01-24T01:33:02.350Z,3.10
2018-01-24T01:35:29.870Z,1.70
2018-01-24T01:37:57.762Z,2.83
2018-01-24T01:40:25.275Z,2.17
2018-01-24T01:42:52.765Z,2.00
2018-01-24T01:45:20.285Z,1.73
2018-01-24T01:47:47.774Z,2.15
2018-01-24T01:50:15.294Z,1.30
2018-01-24T01:52:42.790Z,2.20
2018-01-24T01:55:10.454Z,2.45
2018-01-24T01:57:38.065Z,2.28
2018-01-24T02:00:05.603Z,4.62
2018-01-24T02:02:33.225Z,1.62
2018-01-24T02:05:00.753Z,2.28
2018-01-24T02:07:28.650Z,4.03
2018-01-24T02:09:56.159Z,1.98
2018-01-24T02:12:23.672Z,1.55
2018-01-24T02:14:51.166Z,0.90
2018-01-24T02:17:18.784Z,2.70
2018-01-24T02:19:46.282Z,2.75
2018-01-24T02:22:13.807Z,1.17
2018-01-24T02:24:41.338Z,1.62
2018-01-24T02:27:08.996Z,1.60
2018-01-24T02:29:36.654Z,1.20
2018-01-24T02:32:04.310Z,0.85
2018-01-24T02:34:31.807Z,0.90
2018-01-24T02:36:59.306Z,2.42
2018-01-24T02:39:27.305Z,2.30
2018-01-24T02:41:54.947Z,1.58
2018-01-24T02:44:22.463Z,2.20
2018-01-24T02:46:50.077Z,1.75
2018-01-24T02:49:17.610Z,1.80
2018-01-24T02:51:45.119Z,1.17
2018-01-24T02:54:12.710Z,1.15
2018-01-24T02:56:40.694Z,1.70
2018-01-24T02:59:08.234Z,1.45
2018-01-24T03:01:36.223Z,2.25
2018-01-24T03:04:03.877Z,1.05
2018-01-24T03:06:31.395Z,1.37
2018-01-24T03:08:58.886Z,1.70
2018-01-24T03:11:26.442Z,0.98
2018-01-24T03:13:53.933Z,1.10
2018-01-24T03:16:21.442Z,0.88
2018-01-24T03:18:49.334Z,1.90
2018-01-24T03:21:16.851Z,1.35
2018-01-24T03:23:44.531Z,2.67
2018-01-24T03:26:12.190Z,1.25
2018-01-24T03:28:39.681Z,1.50
2018-01-24T03:31:07.179Z,2.33
2018-01-24T03:33:35.089Z,2.87
2018-01-24T03:36:02.587Z,0.95
2018-01-24T03:38:30.278Z,1.67
2018-01-24T03:40:57.774Z,1.27
2018-01-24T03:43:25.297Z,0.80
2018-01-24T03:45:52.794Z,2.10
2018-01-24T03:48:20.314Z,1.58
2018-01-24T03:50:47.823Z,1.65
2018-01-24T03:53:15.415Z,1.10
2018-01-24T03:55:42.910Z,1.40
2018-01-24T03:58:10.525Z,1.17
2018-01-24T04:00:38.043Z,1.52
2018-01-24T04:03:05.642Z,2.15
2018-01-24T04:05:33.166Z,1.83
2018-01-24T04:08:01.390Z,0.50
2018-01-24T04:10:29.040Z,1.08
2018-01-24T04:12:56.686Z,0.80
2018-01-24T04:15:24.202Z,0.75
2018-01-24T04:17:52.211Z,0.75
2018-01-24T04:20:19.722Z,0.73
2018-01-24T04:22:47.219Z,0.55
2018-01-24T04:25:14.735Z,0.80
2018-01-24T04:27:42.230Z,0.52
2018-01-24T04:30:09.886Z,0.73
2018-01-24T04:32:37.520Z,0.50
2018-01-24T04:35:05.052Z,1.10
2018-01-24T04:37:32.658Z,1.08
2018-01-24T04:40:00.154Z,0.25
2018-01-24T04:42:27.673Z,1.25
2018-01-24T04:44:55.183Z,0.57
2018-01-24T04:47:22.714Z,0.85
2018-01-24T04:49:50.234Z,2.47
2018-01-24T04:52:17.746Z,0.68
2018-01-24T04:54:45.238Z,1.37
2018-01-24T04:57:12.759Z,1.17
2018-01-24T04:59:40.258Z,0.65
2018-01-24T05:02:07.776Z,0.50
2018-01-24T05:04:35.278Z,0.30
2018-01-24T05:07:02.784Z,1.00
2018-01-24T05:09:30.306Z,2.08
2018-01-24T05:11:57.825Z,1.05
2018-01-24T05:14:25.346Z,0.52
2018-01-24T05:16:52.842Z,0.30
2018-01-24T05:19:20.359Z,0.75
2018-01-24T05:21:57.768Z,0.85
2018-01-24T05:24:25.756Z,0.73
2018-01-24T05:26:53.271Z,0.57
2018-01-24T05:29:20.790Z,0.82
2018-01-24T05:31:48.287Z,0.43
2018-01-24T05:34:15.798Z,0.57
2018-01-24T05:36:43.429Z,0.75
2018-01-24T05:39:10.950Z,0.30
2018-01-24T05:41:38.468Z,0.45
2018-01-24T05:44:05.997Z,0.90
2018-01-24T05:46:33.713Z,0.60
2018-01-24T05:49:01.319Z,1.62
2018-01-24T05:51:28.834Z,1.05
2018-01-24T05:53:56.378Z,1.05
2018-01-24T05:56:24.050Z,11.35
2018-01-24T05:58:51.554Z,15.82
2018-01-24T06:01:19.082Z,19.15
2018-01-24T06:03:47.071Z,12.98
2018-01-24T06:06:14.586Z,18.73
2018-01-24T06:08:42.177Z,16.00
2018-01-24T06:11:09.849Z,16.67
2018-01-24T06:13:37.494Z,8.20
2018-01-24T06:16:04.986Z,16.23
2018-01-24T06:18:32.503Z,8.88
2018-01-24T06:21:00.002Z,13.52
2018-01-24T06:23:27.514Z,12.00
